sensor_id;sensor_type;location;lat;lon;timestamp;temperature;humidity
51902;DHT22;37929;53.218;6.548;2023-05-10T00:01:47;12.70;99.90
51902;DHT22;37929;53.218;6.548;2023-05-10T00:04:13;12.70;99.90
51902;DHT22;37929;53.218;6.548;2023-05-10T00:06:41;12.70;99.90
51902;DHT22;37929;53.218;6.548;2023-05-10T00:09:07;12.70;99.90
51902;DHT22;37929;53.218;6.548;2023-05-10T00:11:33;12.60;99.90
51902;DHT22;37929;53.218;6.548;2023-05-10T00:13:59;12.60;99.90
51902;DHT22;37929;53.218;6.548;2023-05-10T00:16:25;12.60;99.90
51902;DHT22;37929;53.218;6.548;2023-05-10T00:18:50;12.60;99.90
51902;DHT22;37929;53.218;6.548;2023-05-10T00:21:19;12.60;99.90
51902;DHT22;37929;53.218;6.548;2023-05-10T00:23:45;12.60;99.90
51902;DHT22;37929;53.218;6.548;2023-05-10T00:26:11;12.50;99.90
51902;DHT22;37929;53.218;6.548;2023-05-10T00:28:36;12.50;99.90
51902;DHT22;37929;53.218;6.548;2023-05-10T00:31:02;12.50;99.90
51902;DHT22;37929;53.218;6.548;2023-05-10T00:33:28;12.50;99.90
51902;DHT22;37929;53.218;6.548;2023-05-10T00:35:54;12.50;99.90
51902;DHT22;37929;53.218;6.548;2023-05-10T00:38:19;12.50;99.90
51902;DHT22;37929;53.218;6.548;2023-05-10T00:40:45;12.50;99.90
51902;DHT22;37929;53.218;6.548;2023-05-10T00:43:11;12.40;99.90
51902;DHT22;37929;53.218;6.548;2023-05-10T00:45:37;12.40;99.90
51902;DHT22;37929;53.218;6.548;2023-05-10T00:48:05;12.40;99.90
51902;DHT22;37929;53.218;6.548;2023-05-10T00:50:32;12.50;99.90
51902;DHT22;37929;53.218;6.548;2023-05-10T00:52:59;12.40;99.90
51902;DHT22;37929;53.218;6.548;2023-05-10T00:55:26;12.40;99.90
51902;DHT22;37929;53.218;6.548;2023-05-10T00:57:53;12.40;99.90
51902;DHT22;37929;53.218;6.548;2023-05-10T01:00:19;12.30;99.90
51902;DHT22;37929;53.218;6.548;2023-05-10T01:02:45;12.40;99.90
51902;DHT22;37929;53.218;6.548;2023-05-10T01:05:12;12.40;99.90
51902;DHT22;37929;53.218;6.548;2023-05-10T01:07:38;12.40;99.90
51902;DHT22;37929;53.218;6.548;2023-05-10T01:10:05;12.30;99.90
51902;DHT22;37929;53.218;6.548;2023-05-10T01:12:31;12.30;99.90
51902;DHT22;37929;53.218;6.548;2023-05-10T01:14:57;12.30;99.90
51902;DHT22;37929;53.218;6.548;2023-05-10T01:17:23;12.30;99.90
51902;DHT22;37929;53.218;6.548;2023-05-10T01:19:50;12.30;99.90
51902;DHT22;37929;53.218;6.548;2023-05-10T01:25:42;12.30;99.90
51902;DHT22;37929;53.218;6.548;2023-05-10T01:31:03;12.30;99.90
51902;DHT22;37929;53.218;6.548;2023-05-10T01:36:19;12.30;99.90
51902;DHT22;37929;53.218;6.548;2023-05-10T01:39:15;12.30;99.90
51902;DHT22;37929;53.218;6.548;2023-05-10T01:42:10;12.30;99.90
51902;DHT22;37929;53.218;6.548;2023-05-10T01:47:50;12.20;99.90
51902;DHT22;37929;53.218;6.548;2023-05-10T01:50:15;12.20;99.90
51902;DHT22;37929;53.218;6.548;2023-05-10T01:52:42;12.20;99.90
51902;DHT22;37929;53.218;6.548;2023-05-10T01:55:14;12.20;99.90
51902;DHT22;37929;53.218;6.548;2023-05-10T01:57:43;12.20;99.90
51902;DHT22;37929;53.218;6.548;2023-05-10T02:00:11;12.20;99.90
51902;DHT22;37929;53.218;6.548;2023-05-10T02:02:39;12.20;99.90
51902;DHT22;37929;53.218;6.548;2023-05-10T02:05:08;12.10;99.90
51902;DHT22;37929;53.218;6.548;2023-05-10T02:07:36;12.10;99.90
51902;DHT22;37929;53.218;6.548;2023-05-10T02:10:04;12.10;99.90
51902;DHT22;37929;53.218;6.548;2023-05-10T02:12:32;12.10;99.90
51902;DHT22;37929;53.218;6.548;2023-05-10T02:15:02;12.10;99.90
51902;DHT22;37929;53.218;6.548;2023-05-10T02:17:32;12.10;99.90
51902;DHT22;37929;53.218;6.548;2023-05-10T02:20:02;12.20;99.90
51902;DHT22;37929;53.218;6.548;2023-05-10T02:22:29;12.20;99.90
51902;DHT22;37929;53.218;6.548;2023-05-10T02:24:58;12.20;99.90
51902;DHT22;37929;53.218;6.548;2023-05-10T02:27:25;12.10;99.90
51902;DHT22;37929;53.218;6.548;2023-05-10T02:29:53;12.10;99.90
51902;DHT22;37929;53.218;6.548;2023-05-10T02:32:21;12.10;99.90
51902;DHT22;37929;53.218;6.548;2023-05-10T02:34:49;12.10;99.90
51902;DHT22;37929;53.218;6.548;2023-05-10T02:37:21;12.10;99.90
51902;DHT22;37929;53.218;6.548;2023-05-10T02:39:49;12.00;99.90
51902;DHT22;37929;53.218;6.548;2023-05-10T02:42:20;12.10;99.90
51902;DHT22;37929;53.218;6.548;2023-05-10T02:44:50;12.10;99.90
51902;DHT22;37929;53.218;6.548;2023-05-10T02:47:18;12.10;99.90
51902;DHT22;37929;53.218;6.548;2023-05-10T02:49:44;12.20;99.90
51902;DHT22;37929;53.218;6.548;2023-05-10T02:52:10;12.20;99.90
51902;DHT22;37929;53.218;6.548;2023-05-10T02:54:46;12.10;99.90
51902;DHT22;37929;53.218;6.548;2023-05-10T02:57:16;12.10;99.90
51902;DHT22;37929;53.218;6.548;2023-05-10T02:59:45;12.10;99.90
51902;DHT22;37929;53.218;6.548;2023-05-10T03:02:14;12.10;99.90
51902;DHT22;37929;53.218;6.548;2023-05-10T03:04:40;12.20;99.90
51902;DHT22;37929;53.218;6.548;2023-05-10T03:07:06;12.10;99.90
51902;DHT22;37929;53.218;6.548;2023-05-10T03:09:33;12.10;99.90
51902;DHT22;37929;53.218;6.548;2023-05-10T03:14:54;12.10;99.90
51902;DHT22;37929;53.218;6.548;2023-05-10T03:20:48;12.10;99.90
51902;DHT22;37929;53.218;6.548;2023-05-10T03:25:43;12.10;99.90
51902;DHT22;37929;53.218;6.548;2023-05-10T03:28:09;12.20;99.90
51902;DHT22;37929;53.218;6.548;2023-05-10T03:30:35;12.20;99.90
51902;DHT22;37929;53.218;6.548;2023-05-10T03:33:05;12.20;99.90
51902;DHT22;37929;53.218;6.548;2023-05-10T03:35:32;12.20;99.90
51902;DHT22;37929;53.218;6.548;2023-05-10T03:37:58;12.10;99.90
51902;DHT22;37929;53.218;6.548;2023-05-10T03:40:24;12.20;99.90
51902;DHT22;37929;53.218;6.548;2023-05-10T03:42:50;12.20;99.90
51902;DHT22;37929;53.218;6.548;2023-05-10T03:45:16;12.20;99.90
51902;DHT22;37929;53.218;6.548;2023-05-10T03:47:42;12.20;99.90
51902;DHT22;37929;53.218;6.548;2023-05-10T03:50:07;12.20;99.90
51902;DHT22;37929;53.218;6.548;2023-05-10T03:52:33;12.20;99.90
51902;DHT22;37929;53.218;6.548;2023-05-10T03:54:59;12.20;99.90
51902;DHT22;37929;53.218;6.548;2023-05-10T03:57:25;12.20;99.90
51902;DHT22;37929;53.218;6.548;2023-05-10T03:59:50;12.20;99.90
51902;DHT22;37929;53.218;6.548;2023-05-10T04:02:16;12.20;99.90
51902;DHT22;37929;53.218;6.548;2023-05-10T04:04:42;12.20;99.90
51902;DHT22;37929;53.218;6.548;2023-05-10T04:07:08;12.20;99.90
51902;DHT22;37929;53.218;6.548;2023-05-10T04:09:35;12.20;99.90
51902;DHT22;37929;53.218;6.548;2023-05-10T04:12:01;12.20;99.90
51902;DHT22;37929;53.218;6.548;2023-05-10T04:14:27;12.20;99.90
51902;DHT22;37929;53.218;6.548;2023-05-10T04:16:53;12.20;99.90
51902;DHT22;37929;53.218;6.548;2023-05-10T04:19:19;12.20;99.90
51902;DHT22;37929;53.218;6.548;2023-05-10T04:21:45;12.20;99.90
51902;DHT22;37929;53.218;6.548;2023-05-10T04:24:10;12.20;99.90
51902;DHT22;37929;53.218;6.548;2023-05-10T04:26:36;12.20;99.90
51902;DHT22;37929;53.218;6.548;2023-05-10T04:29:02;12.10;99.90
51902;DHT22;37929;53.218;6.548;2023-05-10T04:31:27;12.10;99.90
51902;DHT22;37929;53.218;6.548;2023-05-10T04:33:53;12.10;99.90
51902;DHT22;37929;53.218;6.548;2023-05-10T04:36:19;12.10;99.90
51902;DHT22;37929;53.218;6.548;2023-05-10T04:38:45;12.10;99.90
51902;DHT22;37929;53.218;6.548;2023-05-10T04:41:11;12.10;99.90
51902;DHT22;37929;53.218;6.548;2023-05-10T04:43:37;12.10;99.90
51902;DHT22;37929;53.218;6.548;2023-05-10T04:46:04;12.10;99.90
51902;DHT22;37929;53.218;6.548;2023-05-10T04:48:30;12.00;99.90
51902;DHT22;37929;53.218;6.548;2023-05-10T04:50:55;12.10;99.90
51902;DHT22;37929;53.218;6.548;2023-05-10T04:53:22;12.10;99.90
51902;DHT22;37929;53.218;6.548;2023-05-10T04:55:47;12.10;99.90
51902;DHT22;37929;53.218;6.548;2023-05-10T04:58:13;12.10;99.90
51902;DHT22;37929;53.218;6.548;2023-05-10T05:00:39;12.00;99.90
51902;DHT22;37929;53.218;6.548;2023-05-10T05:03:05;12.10;99.90
51902;DHT22;37929;53.218;6.548;2023-05-10T05:05:31;12.10;99.90
51902;DHT22;37929;53.218;6.548;2023-05-10T05:07:57;12.10;99.90
51902;DHT22;37929;53.218;6.548;2023-05-10T05:10:23;12.00;99.90
51902;DHT22;37929;53.218;6.548;2023-05-10T05:12:49;12.10;99.90
51902;DHT22;37929;53.218;6.548;2023-05-10T05:15:14;12.10;99.90
51902;DHT22;37929;53.218;6.548;2023-05-10T05:17:42;12.10;99.90
51902;DHT22;37929;53.218;6.548;2023-05-10T05:20:09;12.10;99.90
51902;DHT22;37929;53.218;6.548;2023-05-10T05:22:36;11.90;99.90
51902;DHT22;37929;53.218;6.548;2023-05-10T05:25:02;12.10;99.90
51902;DHT22;37929;53.218;6.548;2023-05-10T05:27:29;12.10;99.90
51902;DHT22;37929;53.218;6.548;2023-05-10T05:29:55;12.00;99.90
51902;DHT22;37929;53.218;6.548;2023-05-10T05:32:22;12.10;99.90
51902;DHT22;37929;53.218;6.548;2023-05-10T05:34:48;12.10;99.90
51902;DHT22;37929;53.218;6.548;2023-05-10T05:37:15;12.10;99.90
51902;DHT22;37929;53.218;6.548;2023-05-10T05:39:41;12.10;99.90
51902;DHT22;37929;53.218;6.548;2023-05-10T05:42:08;12.10;99.90
51902;DHT22;37929;53.218;6.548;2023-05-10T05:44:34;12.10;99.90
51902;DHT22;37929;53.218;6.548;2023-05-10T05:47:00;12.10;99.90
51902;DHT22;37929;53.218;6.548;2023-05-10T05:49:26;12.10;99.90
51902;DHT22;37929;53.218;6.548;2023-05-10T05:51:52;12.10;99.90
51902;DHT22;37929;53.218;6.548;2023-05-10T05:54:17;12.10;99.90
51902;DHT22;37929;53.218;6.548;2023-05-10T05:56:43;12.10;99.90
51902;DHT22;37929;53.218;6.548;2023-05-10T05:59:10;12.10;99.90
51902;DHT22;37929;53.218;6.548;2023-05-10T06:01:36;12.10;99.90
51902;DHT22;37929;53.218;6.548;2023-05-10T06:04:01;12.20;99.90
51902;DHT22;37929;53.218;6.548;2023-05-10T06:06:27;12.20;99.90
51902;DHT22;37929;53.218;6.548;2023-05-10T06:08:54;12.20;99.90
51902;DHT22;37929;53.218;6.548;2023-05-10T06:11:20;12.20;99.90
51902;DHT22;37929;53.218;6.548;2023-05-10T06:13:46;12.20;99.90
51902;DHT22;37929;53.218;6.548;2023-05-10T06:16:12;12.20;99.90
51902;DHT22;37929;53.218;6.548;2023-05-10T06:18:39;12.20;99.90
51902;DHT22;37929;53.218;6.548;2023-05-10T06:21:05;12.20;99.90
51902;DHT22;37929;53.218;6.548;2023-05-10T06:23:30;12.20;99.90
51902;DHT22;37929;53.218;6.548;2023-05-10T06:25:56;12.20;99.90
51902;DHT22;37929;53.218;6.548;2023-05-10T06:28:22;12.20;99.90
51902;DHT22;37929;53.218;6.548;2023-05-10T06:30:48;12.20;99.90
51902;DHT22;37929;53.218;6.548;2023-05-10T06:33:13;12.20;99.90
51902;DHT22;37929;53.218;6.548;2023-05-10T06:35:39;12.10;99.90
51902;DHT22;37929;53.218;6.548;2023-05-10T06:38:05;12.10;99.90
51902;DHT22;37929;53.218;6.548;2023-05-10T06:40:31;12.10;99.90
51902;DHT22;37929;53.218;6.548;2023-05-10T06:42:56;12.10;99.90
51902;DHT22;37929;53.218;6.548;2023-05-10T06:45:23;12.00;99.90
51902;DHT22;37929;53.218;6.548;2023-05-10T06:47:48;12.00;99.90
51902;DHT22;37929;53.218;6.548;2023-05-10T06:50:14;12.00;99.90
51902;DHT22;37929;53.218;6.548;2023-05-10T06:52:40;12.00;99.90
51902;DHT22;37929;53.218;6.548;2023-05-10T06:55:06;12.00;99.90
51902;DHT22;37929;53.218;6.548;2023-05-10T06:57:32;12.00;99.90
51902;DHT22;37929;53.218;6.548;2023-05-10T06:59:58;11.90;99.90
51902;DHT22;37929;53.218;6.548;2023-05-10T07:02:25;12.00;99.90
51902;DHT22;37929;53.218;6.548;2023-05-10T07:04:50;11.90;99.90
51902;DHT22;37929;53.218;6.548;2023-05-10T07:07:17;12.00;99.90
51902;DHT22;37929;53.218;6.548;2023-05-10T07:09:43;12.00;99.90
51902;DHT22;37929;53.218;6.548;2023-05-10T07:12:09;12.00;99.90
51902;DHT22;37929;53.218;6.548;2023-05-10T07:14:35;12.00;99.90
51902;DHT22;37929;53.218;6.548;2023-05-10T07:17:01;12.00;99.90
51902;DHT22;37929;53.218;6.548;2023-05-10T07:19:26;12.00;99.90
51902;DHT22;37929;53.218;6.548;2023-05-10T07:21:52;12.00;99.90
51902;DHT22;37929;53.218;6.548;2023-05-10T07:24:18;12.00;99.90
51902;DHT22;37929;53.218;6.548;2023-05-10T07:26:44;12.00;99.90
51902;DHT22;37929;53.218;6.548;2023-05-10T07:29:09;12.00;99.90
51902;DHT22;37929;53.218;6.548;2023-05-10T07:31:35;12.10;99.90
51902;DHT22;37929;53.218;6.548;2023-05-10T07:34:01;12.10;99.90
51902;DHT22;37929;53.218;6.548;2023-05-10T07:36:26;12.10;99.90
51902;DHT22;37929;53.218;6.548;2023-05-10T07:38:53;12.10;99.90
51902;DHT22;37929;53.218;6.548;2023-05-10T07:41:18;12.20;99.90
51902;DHT22;37929;53.218;6.548;2023-05-10T07:43:44;12.20;99.90
51902;DHT22;37929;53.218;6.548;2023-05-10T07:46:10;12.20;99.90
51902;DHT22;37929;53.218;6.548;2023-05-10T07:48:37;12.20;99.90
51902;DHT22;37929;53.218;6.548;2023-05-10T07:51:02;12.20;99.90
51902;DHT22;37929;53.218;6.548;2023-05-10T07:53:28;12.20;99.90
51902;DHT22;37929;53.218;6.548;2023-05-10T07:56:19;12.20;99.90
51902;DHT22;37929;53.218;6.548;2023-05-10T07:58:47;12.20;99.90
51902;DHT22;37929;53.218;6.548;2023-05-10T08:01:13;12.20;99.90
51902;DHT22;37929;53.218;6.548;2023-05-10T08:03:39;12.20;99.90
51902;DHT22;37929;53.218;6.548;2023-05-10T08:06:05;12.20;99.90
51902;DHT22;37929;53.218;6.548;2023-05-10T08:08:31;12.20;99.90
51902;DHT22;37929;53.218;6.548;2023-05-10T08:10:57;12.20;99.90
51902;DHT22;37929;53.218;6.548;2023-05-10T08:13:23;12.20;99.90
51902;DHT22;37929;53.218;6.548;2023-05-10T08:15:49;12.20;99.90
51902;DHT22;37929;53.218;6.548;2023-05-10T08:18:15;12.20;99.90
51902;DHT22;37929;53.218;6.548;2023-05-10T08:20:40;12.20;99.90
51902;DHT22;37929;53.218;6.548;2023-05-10T08:23:06;12.20;99.90
51902;DHT22;37929;53.218;6.548;2023-05-10T08:25:32;12.20;99.90
51902;DHT22;37929;53.218;6.548;2023-05-10T08:27:57;12.20;99.90
51902;DHT22;37929;53.218;6.548;2023-05-10T08:30:23;12.20;99.90
51902;DHT22;37929;53.218;6.548;2023-05-10T08:32:49;12.20;99.90
51902;DHT22;37929;53.218;6.548;2023-05-10T08:35:15;12.20;99.90
51902;DHT22;37929;53.218;6.548;2023-05-10T08:37:41;12.20;99.90
51902;DHT22;37929;53.218;6.548;2023-05-10T08:40:08;12.20;99.90
51902;DHT22;37929;53.218;6.548;2023-05-10T08:42:40;12.20;99.90
51902;DHT22;37929;53.218;6.548;2023-05-10T08:45:07;12.20;99.90
51902;DHT22;37929;53.218;6.548;2023-05-10T08:47:36;12.30;99.90
51902;DHT22;37929;53.218;6.548;2023-05-10T08:50:04;12.30;99.90
51902;DHT22;37929;53.218;6.548;2023-05-10T08:52:31;12.30;99.90
51902;DHT22;37929;53.218;6.548;2023-05-10T08:55:00;12.30;99.90
51902;DHT22;37929;53.218;6.548;2023-05-10T08:57:26;12.30;99.90
51902;DHT22;37929;53.218;6.548;2023-05-10T08:59:52;12.30;99.90
51902;DHT22;37929;53.218;6.548;2023-05-10T09:02:19;12.30;99.90
51902;DHT22;37929;53.218;6.548;2023-05-10T09:04:45;12.30;99.90
51902;DHT22;37929;53.218;6.548;2023-05-10T09:07:11;12.40;99.90
51902;DHT22;37929;53.218;6.548;2023-05-10T09:09:38;12.30;99.90
51902;DHT22;37929;53.218;6.548;2023-05-10T09:12:04;12.30;99.90
51902;DHT22;37929;53.218;6.548;2023-05-10T09:14:30;12.30;99.90
51902;DHT22;37929;53.218;6.548;2023-05-10T09:16:59;12.30;99.90
51902;DHT22;37929;53.218;6.548;2023-05-10T09:19:25;12.30;99.90
51902;DHT22;37929;53.218;6.548;2023-05-10T09:21:51;12.30;99.90
51902;DHT22;37929;53.218;6.548;2023-05-10T09:24:25;12.30;99.90
51902;DHT22;37929;53.218;6.548;2023-05-10T09:26:50;12.40;99.90
51902;DHT22;37929;53.218;6.548;2023-05-10T09:29:16;12.40;99.90
51902;DHT22;37929;53.218;6.548;2023-05-10T09:31:47;12.40;99.90
51902;DHT22;37929;53.218;6.548;2023-05-10T09:34:20;12.50;99.90
51902;DHT22;37929;53.218;6.548;2023-05-10T09:36:54;12.50;99.90
51902;DHT22;37929;53.218;6.548;2023-05-10T09:39:20;12.50;99.90
51902;DHT22;37929;53.218;6.548;2023-05-10T09:41:47;12.50;99.90
51902;DHT22;37929;53.218;6.548;2023-05-10T09:44:16;12.60;99.90
51902;DHT22;37929;53.218;6.548;2023-05-10T09:46:49;12.70;99.90
51902;DHT22;37929;53.218;6.548;2023-05-10T09:49:14;12.80;99.90
51902;DHT22;37929;53.218;6.548;2023-05-10T09:51:40;12.80;99.90
51902;DHT22;37929;53.218;6.548;2023-05-10T09:54:11;12.80;99.90
51902;DHT22;37929;53.218;6.548;2023-05-10T09:56:38;12.90;99.90
51902;DHT22;37929;53.218;6.548;2023-05-10T09:59:06;12.80;99.90
51902;DHT22;37929;53.218;6.548;2023-05-10T10:01:33;12.90;99.90
51902;DHT22;37929;53.218;6.548;2023-05-10T10:04:05;12.90;99.90
51902;DHT22;37929;53.218;6.548;2023-05-10T10:06:39;12.90;99.90
51902;DHT22;37929;53.218;6.548;2023-05-10T10:09:06;13.00;99.90
51902;DHT22;37929;53.218;6.548;2023-05-10T10:11:35;13.00;99.90
51902;DHT22;37929;53.218;6.548;2023-05-10T10:14:01;13.10;99.90
51902;DHT22;37929;53.218;6.548;2023-05-10T10:16:29;13.10;99.90
51902;DHT22;37929;53.218;6.548;2023-05-10T10:18:58;13.20;99.90
51902;DHT22;37929;53.218;6.548;2023-05-10T10:21:24;13.20;99.90
51902;DHT22;37929;53.218;6.548;2023-05-10T10:23:50;13.30;99.90
51902;DHT22;37929;53.218;6.548;2023-05-10T10:26:17;13.30;99.90
51902;DHT22;37929;53.218;6.548;2023-05-10T10:29:30;13.30;99.90
51902;DHT22;37929;53.218;6.548;2023-05-10T10:34:37;13.40;99.90
51902;DHT22;37929;53.218;6.548;2023-05-10T10:37:05;13.40;99.90
51902;DHT22;37929;53.218;6.548;2023-05-10T10:39:32;13.40;99.90
51902;DHT22;37929;53.218;6.548;2023-05-10T10:41:59;13.40;99.90
51902;DHT22;37929;53.218;6.548;2023-05-10T10:52:28;13.40;99.90
51902;DHT22;37929;53.218;6.548;2023-05-10T10:57:44;13.40;99.90
51902;DHT22;37929;53.218;6.548;2023-05-10T11:03:15;13.50;99.90
51902;DHT22;37929;53.218;6.548;2023-05-10T11:05:51;13.40;99.90
51902;DHT22;37929;53.218;6.548;2023-05-10T11:08:31;13.40;99.90
51902;DHT22;37929;53.218;6.548;2023-05-10T11:18:36;13.50;99.90
51902;DHT22;37929;53.218;6.548;2023-05-10T11:21:03;13.50;99.90
51902;DHT22;37929;53.218;6.548;2023-05-10T11:23:53;13.60;99.90
51902;DHT22;37929;53.218;6.548;2023-05-10T11:26:18;13.60;99.90
51902;DHT22;37929;53.218;6.548;2023-05-10T11:29:09;13.60;99.90
51902;DHT22;37929;53.218;6.548;2023-05-10T11:31:44;13.70;99.90
51902;DHT22;37929;53.218;6.548;2023-05-10T11:34:11;13.70;99.90
51902;DHT22;37929;53.218;6.548;2023-05-10T11:36:36;13.70;99.90
51902;DHT22;37929;53.218;6.548;2023-05-10T11:39:03;13.70;99.90
51902;DHT22;37929;53.218;6.548;2023-05-10T11:41:30;13.70;99.90
51902;DHT22;37929;53.218;6.548;2023-05-10T11:43:57;13.70;99.90
51902;DHT22;37929;53.218;6.548;2023-05-10T11:46:27;13.70;99.90
51902;DHT22;37929;53.218;6.548;2023-05-10T11:48:57;13.70;99.90
51902;DHT22;37929;53.218;6.548;2023-05-10T11:51:25;13.70;99.90
51902;DHT22;37929;53.218;6.548;2023-05-10T11:53:55;13.70;99.90
51902;DHT22;37929;53.218;6.548;2023-05-10T11:56:21;13.60;99.90
51902;DHT22;37929;53.218;6.548;2023-05-10T11:58:53;13.70;99.90
51902;DHT22;37929;53.218;6.548;2023-05-10T12:01:21;13.70;99.90
51902;DHT22;37929;53.218;6.548;2023-05-10T12:03:47;13.60;99.90
51902;DHT22;37929;53.218;6.548;2023-05-10T12:06:13;13.60;99.90
51902;DHT22;37929;53.218;6.548;2023-05-10T12:08:44;13.60;99.90
51902;DHT22;37929;53.218;6.548;2023-05-10T12:11:12;13.60;99.90
51902;DHT22;37929;53.218;6.548;2023-05-10T12:13:43;13.60;99.90
51902;DHT22;37929;53.218;6.548;2023-05-10T12:16:29;13.60;99.90
51902;DHT22;37929;53.218;6.548;2023-05-10T12:18:59;13.50;99.90
51902;DHT22;37929;53.218;6.548;2023-05-10T12:21:29;13.50;99.90
51902;DHT22;37929;53.218;6.548;2023-05-10T12:24:03;13.50;99.90
51902;DHT22;37929;53.218;6.548;2023-05-10T12:26:30;13.50;99.90
51902;DHT22;37929;53.218;6.548;2023-05-10T12:29:12;13.50;99.90
51902;DHT22;37929;53.218;6.548;2023-05-10T12:31:59;13.50;99.90
51902;DHT22;37929;53.218;6.548;2023-05-10T12:34:26;13.50;99.90
51902;DHT22;37929;53.218;6.548;2023-05-10T12:36:53;13.50;99.90
51902;DHT22;37929;53.218;6.548;2023-05-10T12:39:19;13.50;99.90
51902;DHT22;37929;53.218;6.548;2023-05-10T12:41:45;13.50;99.90
51902;DHT22;37929;53.218;6.548;2023-05-10T12:44:10;13.60;99.90
51902;DHT22;37929;53.218;6.548;2023-05-10T12:46:36;13.60;99.90
51902;DHT22;37929;53.218;6.548;2023-05-10T12:49:02;13.60;99.90
51902;DHT22;37929;53.218;6.548;2023-05-10T12:51:27;13.60;99.90
51902;DHT22;37929;53.218;6.548;2023-05-10T12:53:53;13.70;99.90
51902;DHT22;37929;53.218;6.548;2023-05-10T12:56:20;13.70;99.90
51902;DHT22;37929;53.218;6.548;2023-05-10T12:58:46;13.80;99.90
51902;DHT22;37929;53.218;6.548;2023-05-10T13:01:14;13.80;99.90
51902;DHT22;37929;53.218;6.548;2023-05-10T13:03:39;13.90;99.90
51902;DHT22;37929;53.218;6.548;2023-05-10T13:06:05;14.00;99.90
51902;DHT22;37929;53.218;6.548;2023-05-10T13:08:32;14.00;99.90
51902;DHT22;37929;53.218;6.548;2023-05-10T13:11:02;14.00;99.90
51902;DHT22;37929;53.218;6.548;2023-05-10T13:13:28;14.00;99.90
51902;DHT22;37929;53.218;6.548;2023-05-10T13:15:53;14.00;99.90
51902;DHT22;37929;53.218;6.548;2023-05-10T13:18:19;14.00;99.90
51902;DHT22;37929;53.218;6.548;2023-05-10T13:20:45;14.00;99.90
51902;DHT22;37929;53.218;6.548;2023-05-10T13:23:11;14.00;99.90
51902;DHT22;37929;53.218;6.548;2023-05-10T13:25:37;14.00;99.90
51902;DHT22;37929;53.218;6.548;2023-05-10T13:28:03;14.00;99.90
51902;DHT22;37929;53.218;6.548;2023-05-10T13:30:28;14.00;99.90
51902;DHT22;37929;53.218;6.548;2023-05-10T13:32:54;14.00;99.90
51902;DHT22;37929;53.218;6.548;2023-05-10T13:35:20;14.00;99.90
51902;DHT22;37929;53.218;6.548;2023-05-10T13:37:46;14.00;99.90
51902;DHT22;37929;53.218;6.548;2023-05-10T13:40:12;14.00;99.90
51902;DHT22;37929;53.218;6.548;2023-05-10T13:42:37;14.00;99.90
51902;DHT22;37929;53.218;6.548;2023-05-10T13:45:04;13.90;99.90
51902;DHT22;37929;53.218;6.548;2023-05-10T13:47:30;13.90;99.90
51902;DHT22;37929;53.218;6.548;2023-05-10T13:49:56;13.90;99.90
51902;DHT22;37929;53.218;6.548;2023-05-10T13:52:23;13.90;99.90
51902;DHT22;37929;53.218;6.548;2023-05-10T13:54:49;13.90;99.90
51902;DHT22;37929;53.218;6.548;2023-05-10T13:57:14;13.90;99.90
51902;DHT22;37929;53.218;6.548;2023-05-10T13:59:42;13.80;99.90
51902;DHT22;37929;53.218;6.548;2023-05-10T14:02:08;13.80;99.90
51902;DHT22;37929;53.218;6.548;2023-05-10T14:04:33;13.80;99.90
51902;DHT22;37929;53.218;6.548;2023-05-10T14:07:01;13.80;99.90
51902;DHT22;37929;53.218;6.548;2023-05-10T14:09:26;13.90;99.90
51902;DHT22;37929;53.218;6.548;2023-05-10T14:11:52;13.90;99.90
51902;DHT22;37929;53.218;6.548;2023-05-10T14:14:18;13.90;99.90
51902;DHT22;37929;53.218;6.548;2023-05-10T14:16:44;13.90;99.90
51902;DHT22;37929;53.218;6.548;2023-05-10T14:19:10;14.00;99.90
51902;DHT22;37929;53.218;6.548;2023-05-10T14:21:37;14.00;99.90
51902;DHT22;37929;53.218;6.548;2023-05-10T14:24:03;14.00;99.90
51902;DHT22;37929;53.218;6.548;2023-05-10T14:26:28;14.00;99.90
51902;DHT22;37929;53.218;6.548;2023-05-10T14:28:55;14.00;99.90
51902;DHT22;37929;53.218;6.548;2023-05-10T14:31:21;14.00;99.90
51902;DHT22;37929;53.218;6.548;2023-05-10T14:33:48;14.10;99.90
51902;DHT22;37929;53.218;6.548;2023-05-10T14:36:14;14.10;99.90
51902;DHT22;37929;53.218;6.548;2023-05-10T14:38:40;14.10;99.90
51902;DHT22;37929;53.218;6.548;2023-05-10T14:41:06;14.10;99.90
51902;DHT22;37929;53.218;6.548;2023-05-10T14:43:32;14.20;99.90
51902;DHT22;37929;53.218;6.548;2023-05-10T14:45:58;14.20;99.90
51902;DHT22;37929;53.218;6.548;2023-05-10T14:48:24;14.30;99.90
51902;DHT22;37929;53.218;6.548;2023-05-10T14:50:50;14.30;99.90
51902;DHT22;37929;53.218;6.548;2023-05-10T14:53:17;14.30;99.90
51902;DHT22;37929;53.218;6.548;2023-05-10T14:55:43;14.40;99.90
51902;DHT22;37929;53.218;6.548;2023-05-10T14:58:09;14.40;99.90
51902;DHT22;37929;53.218;6.548;2023-05-10T15:00:37;14.40;99.90
51902;DHT22;37929;53.218;6.548;2023-05-10T15:03:03;14.40;99.90
51902;DHT22;37929;53.218;6.548;2023-05-10T15:05:32;14.40;99.90
51902;DHT22;37929;53.218;6.548;2023-05-10T15:07:58;14.50;99.90
51902;DHT22;37929;53.218;6.548;2023-05-10T15:10:23;14.50;99.90
51902;DHT22;37929;53.218;6.548;2023-05-10T15:12:50;14.50;99.90
51902;DHT22;37929;53.218;6.548;2023-05-10T15:15:15;14.50;99.90
51902;DHT22;37929;53.218;6.548;2023-05-10T15:17:41;14.50;99.90
51902;DHT22;37929;53.218;6.548;2023-05-10T15:20:07;14.50;99.90
51902;DHT22;37929;53.218;6.548;2023-05-10T15:22:33;14.50;99.90
51902;DHT22;37929;53.218;6.548;2023-05-10T15:24:59;14.50;99.90
51902;DHT22;37929;53.218;6.548;2023-05-10T15:27:25;14.50;99.90
51902;DHT22;37929;53.218;6.548;2023-05-10T15:29:51;14.50;99.90
51902;DHT22;37929;53.218;6.548;2023-05-10T15:32:17;14.50;99.90
51902;DHT22;37929;53.218;6.548;2023-05-10T15:34:43;14.50;99.90
51902;DHT22;37929;53.218;6.548;2023-05-10T15:37:08;14.50;99.90
51902;DHT22;37929;53.218;6.548;2023-05-10T15:39:35;14.50;99.90
51902;DHT22;37929;53.218;6.548;2023-05-10T15:42:01;14.50;99.90
51902;DHT22;37929;53.218;6.548;2023-05-10T15:44:26;14.50;99.90
51902;DHT22;37929;53.218;6.548;2023-05-10T15:46:52;14.50;99.90
51902;DHT22;37929;53.218;6.548;2023-05-10T15:49:18;14.50;99.90
51902;DHT22;37929;53.218;6.548;2023-05-10T15:51:44;14.40;99.90
51902;DHT22;37929;53.218;6.548;2023-05-10T15:54:09;14.40;99.90
51902;DHT22;37929;53.218;6.548;2023-05-10T15:56:35;14.40;99.90
51902;DHT22;37929;53.218;6.548;2023-05-10T15:59:01;14.30;99.90
51902;DHT22;37929;53.218;6.548;2023-05-10T16:01:28;14.30;99.90
51902;DHT22;37929;53.218;6.548;2023-05-10T16:03:55;14.30;99.90
51902;DHT22;37929;53.218;6.548;2023-05-10T16:06:21;14.20;99.90
51902;DHT22;37929;53.218;6.548;2023-05-10T16:08:46;14.20;99.90
51902;DHT22;37929;53.218;6.548;2023-05-10T16:11:12;14.10;99.90
51902;DHT22;37929;53.218;6.548;2023-05-10T16:13:38;14.10;99.90
51902;DHT22;37929;53.218;6.548;2023-05-10T16:16:03;14.10;99.90